createdAt,value
2019-03-29T00:03:01.951Z,27.60
2019-03-29T00:13:07.038Z,28.70
2019-03-29T00:23:11.939Z,31.13
2019-03-29T00:33:16.917Z,29.37
2019-03-29T00:43:21.895Z,29.77
2019-03-29T00:53:26.869Z,27.40
2019-03-29T01:03:31.920Z,31.63
2019-03-29T01:13:36.837Z,38.70
2019-03-29T01:23:41.800Z,37.53
2019-03-29T01:33:48.289Z,35.43
2019-03-29T01:43:53.219Z,33.23
2019-03-29T01:53:58.128Z,34.33
2019-03-29T02:04:05.874Z,34.67
2019-03-29T02:14:09.687Z,33.40
2019-03-29T02:24:14.646Z,33.40
2019-03-29T02:34:19.695Z,36.37
2019-03-29T02:44:24.616Z,38.53
2019-03-29T02:54:29.595Z,40.93
2019-03-29T03:04:34.575Z,45.43
2019-03-29T03:14:39.640Z,41.07
2019-03-29T03:24:44.554Z,43.60
2019-03-29T03:34:49.533Z,43.27
2019-03-29T03:44:54.489Z,46.27
2019-03-29T03:54:59.586Z,47.93
2019-03-29T04:05:04.575Z,43.33
2019-03-29T04:15:09.519Z,54.17
2019-03-29T04:25:14.510Z,53.67
2019-03-29T04:35:19.569Z,46.37
2019-03-29T04:45:24.509Z,44.23
2019-03-29T04:55:29.581Z,45.97
2019-03-29T05:05:34.774Z,40.27
2019-03-29T05:15:39.887Z,46.47
2019-03-29T05:25:44.965Z,46.57
2019-03-29T05:35:49.995Z,48.87
2019-03-29T05:45:54.982Z,41.93
2019-03-29T05:55:59.970Z,43.00
2019-03-29T06:06:05.059Z,37.03
2019-03-29T06:16:10.096Z,39.83
2019-03-29T06:26:15.150Z,38.10
2019-03-29T06:36:20.358Z,30.80
2019-03-29T06:46:25.257Z,31.33
2019-03-29T06:56:30.297Z,31.60
2019-03-29T07:06:35.335Z,24.73
2019-03-29T07:16:40.379Z,21.80
2019-03-29T07:26:45.354Z,17.07
2019-03-29T07:36:50.256Z,15.97
2019-03-29T07:46:55.555Z,17.43
2019-03-29T07:57:00.619Z,15.07
2019-03-29T08:07:06.242Z,15.93
2019-03-29T08:17:11.828Z,18.20
2019-03-29T08:27:16.901Z,15.83
2019-03-29T08:37:21.929Z,17.80
2019-03-29T08:47:26.875Z,14.53
2019-03-29T08:57:31.883Z,22.33
2019-03-29T09:07:44.391Z,18.80
2019-03-29T09:17:43.585Z,17.23
2019-03-29T09:27:48.709Z,14.43
2019-03-29T09:37:56.521Z,15.57
2019-03-29T09:48:00.498Z,19.47
2019-03-29T09:58:06.309Z,17.13
2019-03-29T10:08:11.403Z,18.43
2019-03-29T10:18:16.315Z,17.33
2019-03-29T10:28:21.314Z,13.60
2019-03-29T10:38:27.303Z,12.73
2019-03-29T10:48:32.535Z,11.43
2019-03-29T10:58:37.542Z,11.03
2019-03-29T11:08:43.713Z,12.50
2019-03-29T11:18:48.840Z,17.53
2019-03-29T11:28:53.808Z,14.83
2019-03-29T11:38:58.894Z,10.93
2019-03-29T11:49:04.248Z,12.40
2019-03-29T11:59:09.146Z,15.93
2019-03-29T12:09:14.132Z,15.53
2019-03-29T12:19:19.181Z,13.10
2019-03-29T12:29:24.291Z,15.10
2019-03-29T12:39:29.404Z,15.30
2019-03-29T12:49:34.381Z,13.53
2019-03-29T12:59:39.450Z,12.83
2019-03-29T13:09:44.533Z,17.03
2019-03-29T13:19:49.484Z,19.27
2019-03-29T13:29:54.472Z,11.73
2019-03-29T13:39:59.461Z,14.93
2019-03-29T13:50:04.827Z,15.90
2019-03-29T14:00:10.960Z,14.63
2019-03-29T14:10:16.262Z,10.37
2019-03-29T14:20:31.113Z,12.47
2019-03-29T14:30:36.182Z,10.87
2019-03-29T14:40:41.245Z,11.87
2019-03-29T14:50:46.173Z,12.83
2019-03-29T15:00:51.227Z,12.40
2019-03-29T15:10:56.217Z,10.93
2019-03-29T15:21:01.405Z,12.40
2019-03-29T15:31:06.499Z,12.37
2019-03-29T15:41:11.627Z,12.73
2019-03-29T15:51:16.618Z,10.83
2019-03-29T16:01:21.712Z,12.50
2019-03-29T16:11:27.054Z,19.60
2019-03-29T16:21:32.188Z,16.53
2019-03-29T16:31:38.132Z,13.77
2019-03-29T16:41:43.087Z,11.60
2019-03-29T16:51:48.057Z,14.97
2019-03-29T17:01:53.056Z,12.87
2019-03-29T17:11:58.076Z,12.03
2019-03-29T17:22:03.164Z,13.80
2019-03-29T17:32:08.103Z,13.33
2019-03-29T17:42:13.349Z,13.50
2019-03-29T17:52:18.326Z,16.97
2019-03-29T18:02:23.431Z,12.53
2019-03-29T18:12:28.485Z,18.57
2019-03-29T18:22:33.648Z,36.10
2019-03-29T18:32:38.925Z,18.13
2019-03-29T18:42:43.931Z,19.60
2019-03-29T18:52:48.831Z,20.30
2019-03-29T19:02:54.736Z,19.17
2019-03-29T19:12:59.826Z,20.50
2019-03-29T19:23:04.822Z,19.50
2019-03-29T19:33:09.866Z,20.37
2019-03-29T19:43:14.852Z,22.50
2019-03-29T19:53:20.755Z,19.67
2019-03-29T20:03:26.824Z,20.30
2019-03-29T20:13:31.778Z,20.50
2019-03-29T20:23:36.719Z,20.87
2019-03-29T20:33:41.632Z,23.17
2019-03-29T20:43:47.610Z,23.60
2019-03-29T20:53:52.514Z,23.17
2019-03-29T21:03:58.486Z,21.93
2019-03-29T21:14:03.398Z,23.33
2019-03-29T21:24:08.414Z,22.43
2019-03-29T21:34:13.750Z,20.37
2019-03-29T21:44:19.384Z,20.17
2019-03-29T21:54:24.449Z,22.07
2019-03-29T22:04:29.521Z,17.80
2019-03-29T22:14:35.703Z,18.83
2019-03-29T22:24:40.762Z,18.27
2019-03-29T22:34:46.425Z,21.20
2019-03-29T22:44:51.427Z,18.43
2019-03-29T22:54:56.683Z,21.63
2019-03-29T23:05:01.656Z,22.73
2019-03-29T23:15:06.731Z,20.83
2019-03-29T23:25:11.973Z,19.73
2019-03-29T23:35:16.908Z,22.80
2019-03-29T23:45:21.835Z,21.03
2019-03-29T23:55:26.989Z,25.57
